sensor_id;sensor_type;location;lat;lon;timestamp;temperature;humidity
19692;DHT22;42748;50.016;19.890;2023-03-07T00:01:32;1.00;99.90
19692;DHT22;42748;50.016;19.890;2023-03-07T00:04:00;1.00;99.90
19692;DHT22;42748;50.016;19.890;2023-03-07T00:06:27;1.00;99.90
19692;DHT22;42748;50.016;19.890;2023-03-07T00:08:58;1.00;99.90
19692;DHT22;42748;50.016;19.890;2023-03-07T00:11:26;1.00;99.90
19692;DHT22;42748;50.016;19.890;2023-03-07T00:13:54;1.00;99.90
19692;DHT22;42748;50.016;19.890;2023-03-07T00:16:22;1.10;99.90
19692;DHT22;42748;50.016;19.890;2023-03-07T00:18:50;1.10;99.90
19692;DHT22;42748;50.016;19.890;2023-03-07T00:21:20;1.20;99.90
19692;DHT22;42748;50.016;19.890;2023-03-07T00:23:50;1.20;99.90
19692;DHT22;42748;50.016;19.890;2023-03-07T00:26:20;1.30;99.90
19692;DHT22;42748;50.016;19.890;2023-03-07T00:28:50;1.30;99.90
19692;DHT22;42748;50.016;19.890;2023-03-07T00:31:17;1.30;99.90
19692;DHT22;42748;50.016;19.890;2023-03-07T00:33:45;1.30;99.90
19692;DHT22;42748;50.016;19.890;2023-03-07T00:36:17;1.30;99.90
19692;DHT22;42748;50.016;19.890;2023-03-07T00:38:45;1.30;99.90
19692;DHT22;42748;50.016;19.890;2023-03-07T00:41:16;1.20;99.90
19692;DHT22;42748;50.016;19.890;2023-03-07T00:43:43;1.20;99.90
19692;DHT22;42748;50.016;19.890;2023-03-07T00:46:14;1.20;99.90
19692;DHT22;42748;50.016;19.890;2023-03-07T00:48:42;1.20;99.90
19692;DHT22;42748;50.016;19.890;2023-03-07T00:51:12;1.20;99.90
19692;DHT22;42748;50.016;19.890;2023-03-07T00:53:40;1.20;99.90
19692;DHT22;42748;50.016;19.890;2023-03-07T00:56:16;1.20;99.90
19692;DHT22;42748;50.016;19.890;2023-03-07T00:58:44;1.20;99.90
19692;DHT22;42748;50.016;19.890;2023-03-07T01:01:14;1.30;99.90
19692;DHT22;42748;50.016;19.890;2023-03-07T01:03:42;1.30;99.90
19692;DHT22;42748;50.016;19.890;2023-03-07T01:06:12;1.30;99.90
19692;DHT22;42748;50.016;19.890;2023-03-07T01:08:40;1.30;99.90
19692;DHT22;42748;50.016;19.890;2023-03-07T01:11:08;1.30;99.90
19692;DHT22;42748;50.016;19.890;2023-03-07T01:13:36;1.40;99.90
19692;DHT22;42748;50.016;19.890;2023-03-07T01:18:38;1.40;99.90
19692;DHT22;42748;50.016;19.890;2023-03-07T01:21:19;1.50;99.90
19692;DHT22;42748;50.016;19.890;2023-03-07T01:23:48;1.50;99.90
19692;DHT22;42748;50.016;19.890;2023-03-07T01:26:18;1.50;99.90
19692;DHT22;42748;50.016;19.890;2023-03-07T01:28:46;1.60;99.90
19692;DHT22;42748;50.016;19.890;2023-03-07T01:31:13;1.60;99.90
19692;DHT22;42748;50.016;19.890;2023-03-07T01:33:40;1.70;99.90
19692;DHT22;42748;50.016;19.890;2023-03-07T01:36:17;1.70;99.90
19692;DHT22;42748;50.016;19.890;2023-03-07T01:38:47;1.80;99.90
19692;DHT22;42748;50.016;19.890;2023-03-07T01:41:15;1.80;99.90
19692;DHT22;42748;50.016;19.890;2023-03-07T01:43:44;1.80;99.90
19692;DHT22;42748;50.016;19.890;2023-03-07T01:49:11;1.90;99.90
19692;DHT22;42748;50.016;19.890;2023-03-07T01:51:41;1.90;99.90
19692;DHT22;42748;50.016;19.890;2023-03-07T01:54:11;1.90;99.90
19692;DHT22;42748;50.016;19.890;2023-03-07T01:56:39;1.90;99.90
19692;DHT22;42748;50.016;19.890;2023-03-07T01:59:07;1.90;99.90
19692;DHT22;42748;50.016;19.890;2023-03-07T02:01:35;1.90;99.90
19692;DHT22;42748;50.016;19.890;2023-03-07T02:04:10;1.80;99.90
19692;DHT22;42748;50.016;19.890;2023-03-07T02:06:39;1.80;99.90
19692;DHT22;42748;50.016;19.890;2023-03-07T02:09:10;1.80;99.90
19692;DHT22;42748;50.016;19.890;2023-03-07T02:11:41;1.70;99.90
19692;DHT22;42748;50.016;19.890;2023-03-07T02:14:09;1.70;99.90
19692;DHT22;42748;50.016;19.890;2023-03-07T02:16:38;1.70;99.90
19692;DHT22;42748;50.016;19.890;2023-03-07T02:19:27;1.70;99.90
19692;DHT22;42748;50.016;19.890;2023-03-07T02:22:10;1.60;99.90
19692;DHT22;42748;50.016;19.890;2023-03-07T02:27:12;1.60;99.90
19692;DHT22;42748;50.016;19.890;2023-03-07T02:29:40;1.60;99.90
19692;DHT22;42748;50.016;19.890;2023-03-07T02:32:08;1.60;99.90
19692;DHT22;42748;50.016;19.890;2023-03-07T02:34:35;1.60;99.90
19692;DHT22;42748;50.016;19.890;2023-03-07T02:37:27;1.50;99.90
19692;DHT22;42748;50.016;19.890;2023-03-07T02:40:00;1.50;99.90
19692;DHT22;42748;50.016;19.890;2023-03-07T02:42:34;1.60;99.90
19692;DHT22;42748;50.016;19.890;2023-03-07T02:45:12;1.60;99.90
19692;DHT22;42748;50.016;19.890;2023-03-07T02:47:42;1.60;99.90
19692;DHT22;42748;50.016;19.890;2023-03-07T02:50:13;1.60;99.90
19692;DHT22;42748;50.016;19.890;2023-03-07T02:52:45;1.70;99.90
19692;DHT22;42748;50.016;19.890;2023-03-07T02:55:12;1.70;99.90
19692;DHT22;42748;50.016;19.890;2023-03-07T02:57:55;1.70;99.90
19692;DHT22;42748;50.016;19.890;2023-03-07T03:00:23;1.60;99.90
19692;DHT22;42748;50.016;19.890;2023-03-07T03:02:50;1.70;99.90
19692;DHT22;42748;50.016;19.890;2023-03-07T03:05:18;1.70;99.90
19692;DHT22;42748;50.016;19.890;2023-03-07T03:07:47;1.70;99.90
19692;DHT22;42748;50.016;19.890;2023-03-07T03:10:15;1.70;99.90
19692;DHT22;42748;50.016;19.890;2023-03-07T03:12:43;1.70;99.90
19692;DHT22;42748;50.016;19.890;2023-03-07T03:15:11;1.70;99.90
19692;DHT22;42748;50.016;19.890;2023-03-07T03:17:38;1.60;99.90
19692;DHT22;42748;50.016;19.890;2023-03-07T03:20:06;1.60;99.90
19692;DHT22;42748;50.016;19.890;2023-03-07T03:22:34;1.60;99.90
19692;DHT22;42748;50.016;19.890;2023-03-07T03:25:05;1.60;99.90
19692;DHT22;42748;50.016;19.890;2023-03-07T03:27:34;1.60;99.90
19692;DHT22;42748;50.016;19.890;2023-03-07T03:30:01;1.60;99.90
19692;DHT22;42748;50.016;19.890;2023-03-07T03:32:32;1.60;99.90
19692;DHT22;42748;50.016;19.890;2023-03-07T03:35:00;1.50;99.90
19692;DHT22;42748;50.016;19.890;2023-03-07T03:37:27;1.50;99.90
19692;DHT22;42748;50.016;19.890;2023-03-07T03:39:55;1.50;99.90
19692;DHT22;42748;50.016;19.890;2023-03-07T03:42:22;1.50;99.90
19692;DHT22;42748;50.016;19.890;2023-03-07T03:44:49;1.50;99.90
19692;DHT22;42748;50.016;19.890;2023-03-07T03:47:16;1.50;99.90
19692;DHT22;42748;50.016;19.890;2023-03-07T03:49:44;1.50;99.90
19692;DHT22;42748;50.016;19.890;2023-03-07T03:52:11;1.60;99.90
19692;DHT22;42748;50.016;19.890;2023-03-07T03:54:38;1.60;99.90
19692;DHT22;42748;50.016;19.890;2023-03-07T03:57:05;1.70;99.90
19692;DHT22;42748;50.016;19.890;2023-03-07T03:59:33;1.70;99.90
19692;DHT22;42748;50.016;19.890;2023-03-07T04:02:00;1.70;99.90
19692;DHT22;42748;50.016;19.890;2023-03-07T04:04:27;1.70;99.90
19692;DHT22;42748;50.016;19.890;2023-03-07T04:06:54;1.70;99.90
19692;DHT22;42748;50.016;19.890;2023-03-07T04:09:21;1.70;99.90
19692;DHT22;42748;50.016;19.890;2023-03-07T04:11:49;1.80;99.90
19692;DHT22;42748;50.016;19.890;2023-03-07T04:14:16;1.80;99.90
19692;DHT22;42748;50.016;19.890;2023-03-07T04:16:44;1.90;99.90
19692;DHT22;42748;50.016;19.890;2023-03-07T04:19:11;1.90;99.90
19692;DHT22;42748;50.016;19.890;2023-03-07T04:21:41;1.90;99.90
19692;DHT22;42748;50.016;19.890;2023-03-07T04:24:08;1.90;99.90
19692;DHT22;42748;50.016;19.890;2023-03-07T04:26:35;1.90;99.90
19692;DHT22;42748;50.016;19.890;2023-03-07T04:29:03;1.90;99.90
19692;DHT22;42748;50.016;19.890;2023-03-07T04:31:39;1.90;99.90
19692;DHT22;42748;50.016;19.890;2023-03-07T04:34:07;2.00;99.90
19692;DHT22;42748;50.016;19.890;2023-03-07T04:36:34;2.00;99.90
19692;DHT22;42748;50.016;19.890;2023-03-07T04:39:01;2.00;99.90
19692;DHT22;42748;50.016;19.890;2023-03-07T04:41:29;1.90;99.90
19692;DHT22;42748;50.016;19.890;2023-03-07T04:44:00;2.00;99.90
19692;DHT22;42748;50.016;19.890;2023-03-07T04:46:28;2.00;99.90
19692;DHT22;42748;50.016;19.890;2023-03-07T04:48:55;2.00;99.90
19692;DHT22;42748;50.016;19.890;2023-03-07T04:51:22;2.00;99.90
19692;DHT22;42748;50.016;19.890;2023-03-07T04:53:50;2.00;99.90
19692;DHT22;42748;50.016;19.890;2023-03-07T04:56:17;2.00;99.90
19692;DHT22;42748;50.016;19.890;2023-03-07T04:58:45;2.10;99.90
19692;DHT22;42748;50.016;19.890;2023-03-07T05:01:13;2.10;99.90
19692;DHT22;42748;50.016;19.890;2023-03-07T05:03:41;2.10;99.90
19692;DHT22;42748;50.016;19.890;2023-03-07T05:06:12;2.10;99.90
19692;DHT22;42748;50.016;19.890;2023-03-07T05:08:41;2.10;99.90
19692;DHT22;42748;50.016;19.890;2023-03-07T05:11:09;2.10;99.90
19692;DHT22;42748;50.016;19.890;2023-03-07T05:13:36;2.10;99.90
19692;DHT22;42748;50.016;19.890;2023-03-07T05:16:04;2.10;99.90
19692;DHT22;42748;50.016;19.890;2023-03-07T05:18:31;2.10;99.90
19692;DHT22;42748;50.016;19.890;2023-03-07T05:20:59;2.20;99.90
19692;DHT22;42748;50.016;19.890;2023-03-07T05:23:27;2.20;99.90
19692;DHT22;42748;50.016;19.890;2023-03-07T05:25:55;2.20;99.90
19692;DHT22;42748;50.016;19.890;2023-03-07T05:28:24;2.30;99.90
19692;DHT22;42748;50.016;19.890;2023-03-07T05:30:51;2.30;99.90
19692;DHT22;42748;50.016;19.890;2023-03-07T05:33:19;2.30;99.90
19692;DHT22;42748;50.016;19.890;2023-03-07T05:35:46;2.30;99.90
19692;DHT22;42748;50.016;19.890;2023-03-07T05:38:15;2.30;99.90
19692;DHT22;42748;50.016;19.890;2023-03-07T05:40:42;2.30;99.90
19692;DHT22;42748;50.016;19.890;2023-03-07T05:43:11;2.30;99.90
19692;DHT22;42748;50.016;19.890;2023-03-07T05:45:38;2.40;99.90
19692;DHT22;42748;50.016;19.890;2023-03-07T05:48:05;2.40;99.90
19692;DHT22;42748;50.016;19.890;2023-03-07T05:50:32;2.40;99.90
19692;DHT22;42748;50.016;19.890;2023-03-07T05:52:59;2.50;99.90
19692;DHT22;42748;50.016;19.890;2023-03-07T05:55:29;2.50;99.90
19692;DHT22;42748;50.016;19.890;2023-03-07T05:57:57;2.50;99.90
19692;DHT22;42748;50.016;19.890;2023-03-07T06:00:25;2.60;99.90
19692;DHT22;42748;50.016;19.890;2023-03-07T06:02:56;2.60;99.90
19692;DHT22;42748;50.016;19.890;2023-03-07T06:05:24;2.60;99.90
19692;DHT22;42748;50.016;19.890;2023-03-07T06:07:52;2.70;99.90
19692;DHT22;42748;50.016;19.890;2023-03-07T06:10:19;2.70;99.90
19692;DHT22;42748;50.016;19.890;2023-03-07T06:12:52;2.70;99.90
19692;DHT22;42748;50.016;19.890;2023-03-07T06:15:20;2.80;99.90
19692;DHT22;42748;50.016;19.890;2023-03-07T06:17:54;2.80;99.90
19692;DHT22;42748;50.016;19.890;2023-03-07T06:20:21;2.80;99.90
19692;DHT22;42748;50.016;19.890;2023-03-07T06:22:51;2.90;99.90
19692;DHT22;42748;50.016;19.890;2023-03-07T06:25:18;3.00;99.90
19692;DHT22;42748;50.016;19.890;2023-03-07T06:27:48;3.10;99.90
19692;DHT22;42748;50.016;19.890;2023-03-07T06:30:16;3.10;99.90
19692;DHT22;42748;50.016;19.890;2023-03-07T06:32:44;3.30;99.90
19692;DHT22;42748;50.016;19.890;2023-03-07T06:35:11;3.50;99.90
19692;DHT22;42748;50.016;19.890;2023-03-07T06:37:39;3.70;99.90
19692;DHT22;42748;50.016;19.890;2023-03-07T06:40:07;3.90;99.90
19692;DHT22;42748;50.016;19.890;2023-03-07T06:42:36;4.10;99.90
19692;DHT22;42748;50.016;19.890;2023-03-07T06:45:05;4.30;99.90
19692;DHT22;42748;50.016;19.890;2023-03-07T06:47:33;4.50;99.90
19692;DHT22;42748;50.016;19.890;2023-03-07T06:50:01;4.70;99.90
19692;DHT22;42748;50.016;19.890;2023-03-07T06:52:30;5.00;99.90
19692;DHT22;42748;50.016;19.890;2023-03-07T06:54:58;5.20;99.90
19692;DHT22;42748;50.016;19.890;2023-03-07T06:57:28;5.40;99.90
19692;DHT22;42748;50.016;19.890;2023-03-07T06:59:55;5.60;99.90
19692;DHT22;42748;50.016;19.890;2023-03-07T07:02:23;5.70;99.90
19692;DHT22;42748;50.016;19.890;2023-03-07T07:04:50;6.00;99.90
19692;DHT22;42748;50.016;19.890;2023-03-07T07:07:18;6.20;99.90
19692;DHT22;42748;50.016;19.890;2023-03-07T07:09:45;6.20;99.90
19692;DHT22;42748;50.016;19.890;2023-03-07T07:12:13;6.20;99.90
19692;DHT22;42748;50.016;19.890;2023-03-07T07:14:40;6.10;99.90
19692;DHT22;42748;50.016;19.890;2023-03-07T07:17:07;6.10;99.90
19692;DHT22;42748;50.016;19.890;2023-03-07T07:19:36;5.90;99.90
19692;DHT22;42748;50.016;19.890;2023-03-07T07:22:03;6.20;99.90
19692;DHT22;42748;50.016;19.890;2023-03-07T07:24:32;6.80;99.90
19692;DHT22;42748;50.016;19.890;2023-03-07T07:26:59;7.10;99.90
19692;DHT22;42748;50.016;19.890;2023-03-07T07:29:26;7.10;99.90
19692;DHT22;42748;50.016;19.890;2023-03-07T07:31:53;7.10;99.90
19692;DHT22;42748;50.016;19.890;2023-03-07T07:34:21;7.30;99.90
19692;DHT22;42748;50.016;19.890;2023-03-07T07:36:48;7.40;99.90
19692;DHT22;42748;50.016;19.890;2023-03-07T07:39:15;7.70;99.90
19692;DHT22;42748;50.016;19.890;2023-03-07T07:41:45;8.00;99.90
19692;DHT22;42748;50.016;19.890;2023-03-07T07:44:15;8.10;99.90
19692;DHT22;42748;50.016;19.890;2023-03-07T07:46:51;7.80;99.90
19692;DHT22;42748;50.016;19.890;2023-03-07T07:49:19;7.60;99.90
19692;DHT22;42748;50.016;19.890;2023-03-07T07:51:46;7.30;99.90
19692;DHT22;42748;50.016;19.890;2023-03-07T07:54:13;7.70;99.90
19692;DHT22;42748;50.016;19.890;2023-03-07T07:56:40;8.30;99.90
19692;DHT22;42748;50.016;19.890;2023-03-07T07:59:07;8.10;99.90
19692;DHT22;42748;50.016;19.890;2023-03-07T08:01:35;8.10;99.90
19692;DHT22;42748;50.016;19.890;2023-03-07T08:04:02;7.90;99.90
19692;DHT22;42748;50.016;19.890;2023-03-07T08:06:29;7.90;99.90
19692;DHT22;42748;50.016;19.890;2023-03-07T08:08:57;7.70;99.90
19692;DHT22;42748;50.016;19.890;2023-03-07T08:11:26;7.40;99.90
19692;DHT22;42748;50.016;19.890;2023-03-07T08:13:53;8.00;99.90
19692;DHT22;42748;50.016;19.890;2023-03-07T08:16:21;8.00;99.90
19692;DHT22;42748;50.016;19.890;2023-03-07T08:18:51;7.80;99.90
19692;DHT22;42748;50.016;19.890;2023-03-07T08:21:19;7.90;99.90
19692;DHT22;42748;50.016;19.890;2023-03-07T08:23:47;7.70;99.90
19692;DHT22;42748;50.016;19.890;2023-03-07T08:26:15;7.90;99.90
19692;DHT22;42748;50.016;19.890;2023-03-07T08:28:43;7.70;99.90
19692;DHT22;42748;50.016;19.890;2023-03-07T08:31:19;8.30;99.90
19692;DHT22;42748;50.016;19.890;2023-03-07T08:33:49;8.00;99.90
19692;DHT22;42748;50.016;19.890;2023-03-07T08:36:17;7.90;99.90
19692;DHT22;42748;50.016;19.890;2023-03-07T08:38:47;7.80;99.90
19692;DHT22;42748;50.016;19.890;2023-03-07T08:41:19;8.00;99.90
19692;DHT22;42748;50.016;19.890;2023-03-07T08:43:47;8.50;99.90
19692;DHT22;42748;50.016;19.890;2023-03-07T08:46:14;8.40;99.90
19692;DHT22;42748;50.016;19.890;2023-03-07T08:48:42;8.30;99.90
19692;DHT22;42748;50.016;19.890;2023-03-07T08:51:11;7.90;99.90
19692;DHT22;42748;50.016;19.890;2023-03-07T08:53:41;7.70;99.90
19692;DHT22;42748;50.016;19.890;2023-03-07T08:56:14;7.60;99.90
19692;DHT22;42748;50.016;19.890;2023-03-07T08:58:43;7.80;99.90
19692;DHT22;42748;50.016;19.890;2023-03-07T09:01:11;7.60;99.90
19692;DHT22;42748;50.016;19.890;2023-03-07T09:03:41;7.70;99.90
19692;DHT22;42748;50.016;19.890;2023-03-07T09:06:16;7.70;99.90
19692;DHT22;42748;50.016;19.890;2023-03-07T09:08:43;8.20;99.90
19692;DHT22;42748;50.016;19.890;2023-03-07T09:11:11;8.80;99.90
19692;DHT22;42748;50.016;19.890;2023-03-07T09:13:39;8.70;99.90
19692;DHT22;42748;50.016;19.890;2023-03-07T09:16:18;8.20;99.90
19692;DHT22;42748;50.016;19.890;2023-03-07T09:18:46;8.20;99.90
19692;DHT22;42748;50.016;19.890;2023-03-07T09:21:13;8.10;99.90
19692;DHT22;42748;50.016;19.890;2023-03-07T09:23:42;8.20;99.90
19692;DHT22;42748;50.016;19.890;2023-03-07T09:26:09;8.30;99.90
19692;DHT22;42748;50.016;19.890;2023-03-07T09:28:36;8.10;99.90
19692;DHT22;42748;50.016;19.890;2023-03-07T09:31:09;8.10;99.90
19692;DHT22;42748;50.016;19.890;2023-03-07T09:33:37;8.20;99.90
19692;DHT22;42748;50.016;19.890;2023-03-07T09:36:05;8.10;99.90
19692;DHT22;42748;50.016;19.890;2023-03-07T09:38:33;8.40;99.90
19692;DHT22;42748;50.016;19.890;2023-03-07T09:49:46;9.10;93.50
19692;DHT22;42748;50.016;19.890;2023-03-07T09:52:26;8.90;96.20
19692;DHT22;42748;50.016;19.890;2023-03-07T09:55:00;8.60;95.80
19692;DHT22;42748;50.016;19.890;2023-03-07T09:57:33;8.70;95.30
19692;DHT22;42748;50.016;19.890;2023-03-07T10:00:05;8.40;99.00
19692;DHT22;42748;50.016;19.890;2023-03-07T10:02:47;8.70;97.50
19692;DHT22;42748;50.016;19.890;2023-03-07T10:07:49;8.20;99.80
19692;DHT22;42748;50.016;19.890;2023-03-07T10:10:21;8.10;99.90
19692;DHT22;42748;50.016;19.890;2023-03-07T10:15:39;8.20;99.90
19692;DHT22;42748;50.016;19.890;2023-03-07T10:29:51;8.10;99.90
19692;DHT22;42748;50.016;19.890;2023-03-07T10:32:26;8.10;99.90
19692;DHT22;42748;50.016;19.890;2023-03-07T10:37:56;8.10;99.90
19692;DHT22;42748;50.016;19.890;2023-03-07T10:40:42;7.90;99.90
19692;DHT22;42748;50.016;19.890;2023-03-07T10:43:26;7.80;99.90
19692;DHT22;42748;50.016;19.890;2023-03-07T10:48:27;7.00;99.90
19692;DHT22;42748;50.016;19.890;2023-03-07T10:53:52;6.80;99.90
19692;DHT22;42748;50.016;19.890;2023-03-07T10:56:22;6.80;99.90
19692;DHT22;42748;50.016;19.890;2023-03-07T10:59:06;6.80;99.90
19692;DHT22;42748;50.016;19.890;2023-03-07T11:01:37;6.70;99.90
19692;DHT22;42748;50.016;19.890;2023-03-07T11:04:06;6.60;99.90
19692;DHT22;42748;50.016;19.890;2023-03-07T11:06:55;6.50;99.90
19692;DHT22;42748;50.016;19.890;2023-03-07T11:09:32;6.70;99.90
19692;DHT22;42748;50.016;19.890;2023-03-07T11:14:54;6.60;99.90
19692;DHT22;42748;50.016;19.890;2023-03-07T11:17:41;6.50;99.90
19692;DHT22;42748;50.016;19.890;2023-03-07T11:23:24;6.50;99.90
19692;DHT22;42748;50.016;19.890;2023-03-07T11:25:55;6.60;99.90
19692;DHT22;42748;50.016;19.890;2023-03-07T11:28:32;6.50;99.90
19692;DHT22;42748;50.016;19.890;2023-03-07T11:36:38;7.30;99.90
19692;DHT22;42748;50.016;19.890;2023-03-07T11:39:19;7.30;99.90
19692;DHT22;42748;50.016;19.890;2023-03-07T11:41:55;7.20;99.90
19692;DHT22;42748;50.016;19.890;2023-03-07T11:44:30;7.20;99.90
19692;DHT22;42748;50.016;19.890;2023-03-07T11:50:22;7.40;99.90
19692;DHT22;42748;50.016;19.890;2023-03-07T11:55:26;7.60;99.90
19692;DHT22;42748;50.016;19.890;2023-03-07T11:58:31;7.60;99.90
19692;DHT22;42748;50.016;19.890;2023-03-07T12:01:15;7.40;99.90
19692;DHT22;42748;50.016;19.890;2023-03-07T12:12:15;7.10;99.90
19692;DHT22;42748;50.016;19.890;2023-03-07T12:26:22;7.20;99.90
19692;DHT22;42748;50.016;19.890;2023-03-07T12:29:05;7.10;99.90
19692;DHT22;42748;50.016;19.890;2023-03-07T12:31:36;7.10;99.90
19692;DHT22;42748;50.016;19.890;2023-03-07T12:34:15;7.30;99.90
19692;DHT22;42748;50.016;19.890;2023-03-07T12:36:57;7.40;99.90
19692;DHT22;42748;50.016;19.890;2023-03-07T12:39:50;7.40;99.90
19692;DHT22;42748;50.016;19.890;2023-03-07T12:45:18;7.50;99.90
19692;DHT22;42748;50.016;19.890;2023-03-07T12:50:37;7.50;99.90
19692;DHT22;42748;50.016;19.890;2023-03-07T12:59:08;7.40;99.90
19692;DHT22;42748;50.016;19.890;2023-03-07T13:01:46;7.40;99.90
19692;DHT22;42748;50.016;19.890;2023-03-07T13:04:32;7.60;99.90
19692;DHT22;42748;50.016;19.890;2023-03-07T13:09:48;7.70;99.90
19692;DHT22;42748;50.016;19.890;2023-03-07T13:14:56;7.60;99.90
19692;DHT22;42748;50.016;19.890;2023-03-07T13:27:58;7.40;99.90
19692;DHT22;42748;50.016;19.890;2023-03-07T13:30:27;7.40;99.90
19692;DHT22;42748;50.016;19.890;2023-03-07T13:35:57;7.50;99.90
19692;DHT22;42748;50.016;19.890;2023-03-07T13:38:41;7.60;99.90
19692;DHT22;42748;50.016;19.890;2023-03-07T13:41:12;7.40;99.90
19692;DHT22;42748;50.016;19.890;2023-03-07T13:49:05;7.40;99.90
19692;DHT22;42748;50.016;19.890;2023-03-07T13:51:33;7.30;99.90
19692;DHT22;42748;50.016;19.890;2023-03-07T13:54:04;7.20;99.90
19692;DHT22;42748;50.016;19.890;2023-03-07T13:56:39;7.10;99.90
19692;DHT22;42748;50.016;19.890;2023-03-07T13:59:17;7.20;99.90
19692;DHT22;42748;50.016;19.890;2023-03-07T14:02:00;7.10;99.90
19692;DHT22;42748;50.016;19.890;2023-03-07T14:04:40;7.20;99.90
19692;DHT22;42748;50.016;19.890;2023-03-07T14:27:09;7.20;99.90
19692;DHT22;42748;50.016;19.890;2023-03-07T14:29:49;7.30;99.90
19692;DHT22;42748;50.016;19.890;2023-03-07T14:32:29;7.40;99.90
19692;DHT22;42748;50.016;19.890;2023-03-07T14:34:57;7.40;99.90
19692;DHT22;42748;50.016;19.890;2023-03-07T14:37:26;7.40;99.90
19692;DHT22;42748;50.016;19.890;2023-03-07T14:45:55;7.40;99.90
19692;DHT22;42748;50.016;19.890;2023-03-07T14:51:01;7.30;99.90
19692;DHT22;42748;50.016;19.890;2023-03-07T14:53:31;7.30;99.90
19692;DHT22;42748;50.016;19.890;2023-03-07T14:56:05;7.30;99.90
19692;DHT22;42748;50.016;19.890;2023-03-07T14:58:35;7.30;99.90
19692;DHT22;42748;50.016;19.890;2023-03-07T15:01:14;7.30;99.90
19692;DHT22;42748;50.016;19.890;2023-03-07T15:03:46;7.20;99.90
19692;DHT22;42748;50.016;19.890;2023-03-07T15:06:18;7.10;99.90
19692;DHT22;42748;50.016;19.890;2023-03-07T15:08:50;7.20;99.90
19692;DHT22;42748;50.016;19.890;2023-03-07T15:11:31;7.30;99.90
19692;DHT22;42748;50.016;19.890;2023-03-07T15:14:14;7.30;99.90
19692;DHT22;42748;50.016;19.890;2023-03-07T15:16:49;7.30;99.90
19692;DHT22;42748;50.016;19.890;2023-03-07T15:21:54;7.30;99.90
19692;DHT22;42748;50.016;19.890;2023-03-07T15:24:38;7.20;99.90
19692;DHT22;42748;50.016;19.890;2023-03-07T15:27:06;7.30;99.90
19692;DHT22;42748;50.016;19.890;2023-03-07T15:29:36;7.30;99.90
19692;DHT22;42748;50.016;19.890;2023-03-07T15:32:06;7.40;99.90
19692;DHT22;42748;50.016;19.890;2023-03-07T15:34:59;7.50;99.90
19692;DHT22;42748;50.016;19.890;2023-03-07T15:37:28;7.50;99.90
19692;DHT22;42748;50.016;19.890;2023-03-07T15:42:25;7.60;99.90
19692;DHT22;42748;50.016;19.890;2023-03-07T15:44:57;7.50;99.90
19692;DHT22;42748;50.016;19.890;2023-03-07T15:47:26;7.50;99.90
19692;DHT22;42748;50.016;19.890;2023-03-07T15:50:00;7.40;99.90
19692;DHT22;42748;50.016;19.890;2023-03-07T15:52:35;7.30;99.90
19692;DHT22;42748;50.016;19.890;2023-03-07T15:55:16;7.20;99.90
19692;DHT22;42748;50.016;19.890;2023-03-07T15:57:50;7.10;99.90
19692;DHT22;42748;50.016;19.890;2023-03-07T16:00:26;7.10;99.90
19692;DHT22;42748;50.016;19.890;2023-03-07T16:05:50;6.90;99.90
19692;DHT22;42748;50.016;19.890;2023-03-07T16:08:17;6.90;99.90
19692;DHT22;42748;50.016;19.890;2023-03-07T16:10:49;6.80;99.90
19692;DHT22;42748;50.016;19.890;2023-03-07T16:13:20;6.80;99.90
19692;DHT22;42748;50.016;19.890;2023-03-07T16:16:21;6.70;99.90
19692;DHT22;42748;50.016;19.890;2023-03-07T16:18:50;6.60;99.90
19692;DHT22;42748;50.016;19.890;2023-03-07T16:21:18;6.60;99.90
19692;DHT22;42748;50.016;19.890;2023-03-07T16:23:46;6.60;99.90
19692;DHT22;42748;50.016;19.890;2023-03-07T16:26:15;6.50;99.90
19692;DHT22;42748;50.016;19.890;2023-03-07T16:28:43;6.50;99.90
19692;DHT22;42748;50.016;19.890;2023-03-07T16:31:11;6.40;99.90
19692;DHT22;42748;50.016;19.890;2023-03-07T16:33:39;6.40;99.90
19692;DHT22;42748;50.016;19.890;2023-03-07T16:36:08;6.30;99.90
19692;DHT22;42748;50.016;19.890;2023-03-07T16:38:36;6.30;99.90
19692;DHT22;42748;50.016;19.890;2023-03-07T16:41:13;6.20;99.90
19692;DHT22;42748;50.016;19.890;2023-03-07T16:43:40;6.20;99.90
19692;DHT22;42748;50.016;19.890;2023-03-07T16:46:14;6.20;99.90
19692;DHT22;42748;50.016;19.890;2023-03-07T16:48:42;6.20;99.90
19692;DHT22;42748;50.016;19.890;2023-03-07T16:51:15;6.10;99.90
19692;DHT22;42748;50.016;19.890;2023-03-07T16:53:44;6.10;99.90
19692;DHT22;42748;50.016;19.890;2023-03-07T16:56:24;6.10;99.90
19692;DHT22;42748;50.016;19.890;2023-03-07T16:58:52;6.10;99.90
19692;DHT22;42748;50.016;19.890;2023-03-07T17:01:19;6.00;99.90
19692;DHT22;42748;50.016;19.890;2023-03-07T17:03:46;6.00;99.90
19692;DHT22;42748;50.016;19.890;2023-03-07T17:06:15;6.00;99.90
19692;DHT22;42748;50.016;19.890;2023-03-07T17:08:43;5.90;99.90
19692;DHT22;42748;50.016;19.890;2023-03-07T17:11:24;5.90;99.90
19692;DHT22;42748;50.016;19.890;2023-03-07T17:13:54;5.90;99.90
19692;DHT22;42748;50.016;19.890;2023-03-07T17:16:23;5.90;99.90
19692;DHT22;42748;50.016;19.890;2023-03-07T17:18:50;5.90;99.90
19692;DHT22;42748;50.016;19.890;2023-03-07T17:21:19;5.90;99.90
19692;DHT22;42748;50.016;19.890;2023-03-07T17:23:47;5.90;99.90
19692;DHT22;42748;50.016;19.890;2023-03-07T17:26:26;5.90;99.90
19692;DHT22;42748;50.016;19.890;2023-03-07T17:28:56;5.90;99.90
19692;DHT22;42748;50.016;19.890;2023-03-07T17:31:24;5.90;99.90
19692;DHT22;42748;50.016;19.890;2023-03-07T17:33:51;5.90;99.90
19692;DHT22;42748;50.016;19.890;2023-03-07T17:36:18;6.00;99.90
19692;DHT22;42748;50.016;19.890;2023-03-07T17:38:46;5.90;99.90
19692;DHT22;42748;50.016;19.890;2023-03-07T17:41:13;5.90;99.90
19692;DHT22;42748;50.016;19.890;2023-03-07T17:43:41;5.90;99.90
19692;DHT22;42748;50.016;19.890;2023-03-07T17:46:10;5.90;99.90
19692;DHT22;42748;50.016;19.890;2023-03-07T17:48:40;5.90;99.90
19692;DHT22;42748;50.016;19.890;2023-03-07T17:51:08;5.90;99.90
19692;DHT22;42748;50.016;19.890;2023-03-07T17:53:36;5.90;99.90
19692;DHT22;42748;50.016;19.890;2023-03-07T17:56:09;6.00;99.90
19692;DHT22;42748;50.016;19.890;2023-03-07T17:58:37;5.90;99.90
19692;DHT22;42748;50.016;19.890;2023-03-07T18:01:05;5.90;99.90
19692;DHT22;42748;50.016;19.890;2023-03-07T18:03:37;5.90;99.90
19692;DHT22;42748;50.016;19.890;2023-03-07T18:06:05;5.90;99.90
19692;DHT22;42748;50.016;19.890;2023-03-07T18:08:33;5.90;99.90
19692;DHT22;42748;50.016;19.890;2023-03-07T18:11:08;5.90;99.90
19692;DHT22;42748;50.016;19.890;2023-03-07T18:13:37;5.80;99.90
19692;DHT22;42748;50.016;19.890;2023-03-07T18:16:05;5.80;99.90
19692;DHT22;42748;50.016;19.890;2023-03-07T18:18:34;5.80;99.90
19692;DHT22;42748;50.016;19.890;2023-03-07T18:21:04;5.80;99.90
19692;DHT22;42748;50.016;19.890;2023-03-07T18:23:33;5.80;99.90